createdAt,value
2018-03-23T00:00:03.229Z,1003.33
2018-03-23T00:00:43.997Z,1003.33
2018-03-23T00:01:24.336Z,1003.33
2018-03-23T00:02:04.989Z,1003.36
2018-03-23T00:02:45.569Z,1003.32
2018-03-23T00:03:26.126Z,1003.3
2018-03-23T00:04:06.685Z,1003.26
2018-03-23T00:04:47.281Z,1003.27
2018-03-23T00:05:27.860Z,1003.22
2018-03-23T00:06:08.379Z,1003.28
2018-03-23T00:06:49.069Z,1003.26
2018-03-23T00:07:29.690Z,1003.24
2018-03-23T00:08:11.479Z,1003.23
2018-03-23T00:08:51.629Z,1003.28
2018-03-23T00:09:32.175Z,1003.24
2018-03-23T00:10:12.745Z,1003.26
2018-03-23T00:10:53.295Z,1003.24
2018-03-23T00:11:33.972Z,1003.25
2018-03-23T00:12:14.809Z,1003.23
2018-03-23T00:12:55.268Z,1003.25
2018-03-23T00:13:35.821Z,1003.25
2018-03-23T00:14:16.373Z,1003.24
2018-03-23T00:14:56.930Z,1003.27
2018-03-23T00:15:37.536Z,1003.24
2018-03-23T00:16:18.076Z,1003.25
2018-03-23T00:16:58.637Z,1003.27
2018-03-23T00:17:39.200Z,1003.25
2018-03-23T00:18:19.787Z,1003.25
2018-03-23T00:19:00.386Z,1003.26
2018-03-23T00:19:40.935Z,1003.29
2018-03-23T00:20:21.483Z,1003.28
2018-03-23T00:21:02.018Z,1003.27
2018-03-23T00:21:42.618Z,1003.29
2018-03-23T00:22:23.183Z,1003.31
2018-03-23T00:23:03.752Z,1003.31
2018-03-23T00:23:44.291Z,1003.32
2018-03-23T00:24:24.857Z,1003.33
2018-03-23T00:25:05.420Z,1003.36
2018-03-23T00:25:45.969Z,1003.32
2018-03-23T00:26:26.519Z,1003.3
2018-03-23T00:27:07.072Z,1003.28
2018-03-23T00:27:47.641Z,1003.3
2018-03-23T00:28:28.191Z,1003.28
2018-03-23T00:29:08.730Z,1003.31
2018-03-23T00:29:49.287Z,1003.29
2018-03-23T00:30:29.849Z,1003.31
2018-03-23T00:31:10.395Z,1003.34
2018-03-23T00:31:50.950Z,1003.32
2018-03-23T00:32:31.529Z,1003.37
2018-03-23T00:33:12.079Z,1003.35
2018-03-23T00:33:52.636Z,1003.4
2018-03-23T00:34:33.256Z,1003.4
2018-03-23T00:35:13.790Z,1003.39
2018-03-23T00:35:54.342Z,1003.4
2018-03-23T00:36:34.907Z,1003.4
2018-03-23T00:37:15.471Z,1003.43
2018-03-23T00:37:56.036Z,1003.42
2018-03-23T00:38:36.587Z,1003.37
2018-03-23T00:39:17.131Z,1003.37
2018-03-23T00:39:57.686Z,1003.38
2018-03-23T00:40:38.240Z,1003.37
2018-03-23T00:41:18.807Z,1003.38
2018-03-23T00:41:59.370Z,1003.38
2018-03-23T00:42:39.921Z,1003.36
2018-03-23T00:43:20.489Z,1003.38
2018-03-23T00:44:01.113Z,1003.37
2018-03-23T00:44:41.646Z,1003.35
2018-03-23T00:45:22.215Z,1003.36
2018-03-23T00:46:02.808Z,1003.32
2018-03-23T00:46:43.340Z,1003.31
2018-03-23T00:47:23.903Z,1003.34
2018-03-23T00:48:04.457Z,1003.29
2018-03-23T00:48:45.003Z,1003.29
2018-03-23T00:49:25.574Z,1003.35
2018-03-23T00:50:06.136Z,1003.24
2018-03-23T00:50:46.699Z,1003.3
2018-03-23T00:51:27.241Z,1003.27
2018-03-23T00:52:07.792Z,1003.26
2018-03-23T00:52:48.337Z,1003.27
2018-03-23T00:53:28.914Z,1003.24
2018-03-23T00:54:09.450Z,1003.24
2018-03-23T00:54:50.010Z,1003.24
2018-03-23T00:55:30.566Z,1003.25
2018-03-23T00:56:11.121Z,1003.21
2018-03-23T00:56:51.677Z,1003.17
2018-03-23T00:57:32.238Z,1003.19
2018-03-23T00:58:12.802Z,1003.19
2018-03-23T00:58:53.367Z,1003.22
2018-03-23T00:59:33.970Z,1003.18
2018-03-23T01:00:14.480Z,1003.18
2018-03-23T01:00:55.247Z,1003.19
2018-03-23T01:01:35.819Z,1003.15
2018-03-23T01:02:16.521Z,1003.18
2018-03-23T01:02:57.047Z,1003.21
2018-03-23T01:03:37.619Z,1003.21
2018-03-23T01:04:18.176Z,1003.19
2018-03-23T01:04:58.736Z,1003.19
2018-03-23T01:05:39.290Z,1003.19
2018-03-23T01:06:19.855Z,1003.18
2018-03-23T01:07:00.407Z,1003.2
2018-03-23T01:07:40.972Z,1003.24
2018-03-23T01:08:21.533Z,1003.25
2018-03-23T01:09:02.096Z,1003.24
2018-03-23T01:09:42.659Z,1003.24
2018-03-23T01:10:23.225Z,1003.22
2018-03-23T01:11:03.788Z,1003.22
2018-03-23T01:11:44.346Z,1003.31
2018-03-23T01:12:24.894Z,1003.22
2018-03-23T01:13:05.445Z,1003.28
2018-03-23T01:13:46.009Z,1003.24
2018-03-23T01:14:26.565Z,1003.29
2018-03-23T01:15:07.134Z,1003.28
2018-03-23T01:15:47.681Z,1003.26
2018-03-23T01:16:28.240Z,1003.23
2018-03-23T01:17:08.812Z,1003.28
2018-03-23T01:17:49.357Z,1003.2
2018-03-23T01:18:29.942Z,1003.25
2018-03-23T01:19:10.516Z,1003.24
2018-03-23T01:19:51.079Z,1003.17
2018-03-23T01:20:31.655Z,1003.24
2018-03-23T01:21:12.198Z,1003.21
2018-03-23T01:21:52.794Z,1003.19
2018-03-23T01:22:33.353Z,1003.23
2018-03-23T01:23:13.916Z,1003.27
2018-03-23T01:23:54.487Z,1003.21
2018-03-23T01:24:35.047Z,1003.22
2018-03-23T01:25:15.605Z,1003.24
2018-03-23T01:25:56.173Z,1003.22
2018-03-23T01:26:36.731Z,1003.25
2018-03-23T01:27:17.373Z,1003.23
2018-03-23T01:27:57.933Z,1003.29
2018-03-23T01:28:38.485Z,1003.24
2018-03-23T01:29:19.063Z,1003.21
2018-03-23T01:29:59.630Z,1003.24
2018-03-23T01:30:40.180Z,1003.25
2018-03-23T01:31:20.736Z,1003.27
2018-03-23T01:32:01.295Z,1003.28
2018-03-23T01:32:41.846Z,1003.28
2018-03-23T01:33:22.397Z,1003.23
2018-03-23T01:34:02.957Z,1003.21
2018-03-23T01:34:43.531Z,1003.2
2018-03-23T01:35:24.086Z,1003.19
2018-03-23T01:36:04.647Z,1003.2
2018-03-23T01:36:45.206Z,1003.18
2018-03-23T01:37:25.748Z,1003.22
2018-03-23T01:38:06.329Z,1003.23
2018-03-23T01:38:46.888Z,1003.21
2018-03-23T01:39:27.441Z,1003.21
2018-03-23T01:40:07.990Z,1003.2
2018-03-23T01:40:48.559Z,1003.22
2018-03-23T01:41:29.112Z,1003.22
2018-03-23T01:42:09.667Z,1003.24
2018-03-23T01:42:50.242Z,1003.23
2018-03-23T01:43:30.804Z,1003.21
2018-03-23T01:44:11.373Z,1003.17
2018-03-23T01:44:51.939Z,1003.2
2018-03-23T01:45:32.494Z,1003.25
2018-03-23T01:46:13.047Z,1003.24
2018-03-23T01:46:53.596Z,1003.27
2018-03-23T01:47:34.140Z,1003.18
2018-03-23T01:48:14.709Z,1003.25
2018-03-23T01:48:55.261Z,1003.22
2018-03-23T01:49:35.829Z,1003.24
2018-03-23T01:50:16.380Z,1003.25
2018-03-23T01:50:56.937Z,1003.24
2018-03-23T01:51:37.505Z,1003.25
2018-03-23T01:52:18.060Z,1003.27
2018-03-23T01:52:58.609Z,1003.26
2018-03-23T01:53:39.170Z,1003.31
2018-03-23T01:54:19.718Z,1003.21
2018-03-23T01:55:00.297Z,1003.25
2018-03-23T01:55:40.853Z,1003.28
2018-03-23T01:56:21.416Z,1003.28
2018-03-23T01:57:01.967Z,1003.27
2018-03-23T01:57:42.531Z,1003.25
2018-03-23T01:58:23.086Z,1003.26
2018-03-23T01:59:03.654Z,1003.28
2018-03-23T01:59:44.276Z,1003.21
2018-03-23T02:00:24.800Z,1003.23
2018-03-23T02:01:05.369Z,1003.22
2018-03-23T02:01:45.915Z,1003.21
2018-03-23T02:02:26.469Z,1003.19
2018-03-23T02:03:07.032Z,1003.16
2018-03-23T02:03:47.593Z,1003.15
2018-03-23T02:04:28.147Z,1003.14
2018-03-23T02:05:08.702Z,1003.18
2018-03-23T02:05:49.264Z,1003.19
2018-03-23T02:06:29.832Z,1003.14
2018-03-23T02:07:10.386Z,1003.16
2018-03-23T02:07:50.939Z,1003.18
2018-03-23T02:08:31.504Z,1003.19
2018-03-23T02:09:12.069Z,1003.21
2018-03-23T02:09:52.624Z,1003.11
2018-03-23T02:10:33.210Z,1003.11
2018-03-23T02:11:13.757Z,1003.14
2018-03-23T02:11:54.302Z,1003.15
2018-03-23T02:12:34.829Z,1003.15
2018-03-23T02:13:15.399Z,1003.14
2018-03-23T02:13:55.954Z,1003.17
2018-03-23T02:14:36.502Z,1003.12
2018-03-23T02:15:17.090Z,1003.12
2018-03-23T02:15:57.644Z,1003.12
2018-03-23T02:16:38.195Z,1003.1
2018-03-23T02:17:18.756Z,1003.11
2018-03-23T02:17:59.319Z,1003.09
2018-03-23T02:18:39.922Z,1003.12
2018-03-23T02:19:20.432Z,1003.1
2018-03-23T02:20:00.998Z,1003.07
2018-03-23T02:20:41.559Z,1003.06
2018-03-23T02:21:22.113Z,1003.08
2018-03-23T02:22:02.666Z,1003.08
2018-03-23T02:22:43.220Z,1003.08
2018-03-23T02:23:23.794Z,1003.1
2018-03-23T02:24:04.331Z,1003.09
2018-03-23T02:24:44.892Z,1003.08
2018-03-23T02:25:25.462Z,1003.08
2018-03-23T02:26:06.023Z,1003.04
2018-03-23T02:26:46.556Z,1003.05
2018-03-23T02:27:27.122Z,1003.09
2018-03-23T02:28:07.698Z,1003.06
2018-03-23T02:28:48.257Z,1003.03
2018-03-23T02:29:28.823Z,1003.02
2018-03-23T02:30:09.374Z,1002.98
2018-03-23T02:30:49.946Z,1002.96
2018-03-23T02:31:30.507Z,1002.95
2018-03-23T02:32:11.070Z,1002.98
2018-03-23T02:32:51.636Z,1002.96
2018-03-23T02:33:32.193Z,1002.97
2018-03-23T02:34:12.751Z,1002.93
2018-03-23T02:34:53.297Z,1002.92
2018-03-23T02:35:33.857Z,1002.94
2018-03-23T02:36:14.416Z,1002.95
2018-03-23T02:36:54.966Z,1002.9
2018-03-23T02:37:35.517Z,1002.97
2018-03-23T02:38:16.088Z,1002.95
2018-03-23T02:38:56.640Z,1002.92
2018-03-23T02:39:37.189Z,1002.93
2018-03-23T02:40:17.731Z,1002.92
2018-03-23T02:40:58.291Z,1002.94
2018-03-23T02:41:38.842Z,1002.87
2018-03-23T02:42:19.396Z,1002.86
2018-03-23T02:42:59.972Z,1002.9
2018-03-23T02:43:40.529Z,1002.91
2018-03-23T02:44:21.094Z,1002.89
2018-03-23T02:45:01.657Z,1002.84
2018-03-23T02:45:42.205Z,1002.87
2018-03-23T02:46:22.753Z,1002.9
2018-03-23T02:47:03.298Z,1002.87
2018-03-23T02:47:43.857Z,1002.93
2018-03-23T02:48:24.508Z,1002.92
2018-03-23T02:49:05.090Z,1002.95
2018-03-23T02:49:45.715Z,1002.94
2018-03-23T02:50:26.268Z,1002.92
2018-03-23T02:51:06.829Z,1002.95
2018-03-23T02:51:47.396Z,1002.9
2018-03-23T02:52:27.939Z,1002.9
2018-03-23T02:53:08.521Z,1002.9
2018-03-23T02:53:49.080Z,1002.91
2018-03-23T02:54:29.662Z,1002.93
2018-03-23T02:55:10.238Z,1002.88
2018-03-23T02:55:50.782Z,1002.89
2018-03-23T02:56:31.359Z,1002.9
2018-03-23T02:57:11.915Z,1002.93
2018-03-23T02:57:52.474Z,1002.85
2018-03-23T02:58:33.065Z,1002.83
2018-03-23T02:59:13.607Z,1002.84
2018-03-23T02:59:54.176Z,1002.83
2018-03-23T03:00:34.764Z,1002.85
2018-03-23T03:01:15.314Z,1002.84
2018-03-23T03:01:55.872Z,1002.84
2018-03-23T03:02:36.431Z,1002.82
2018-03-23T03:03:16.991Z,1002.85
2018-03-23T03:03:57.551Z,1002.85
2018-03-23T03:04:38.112Z,1002.86
2018-03-23T03:05:18.664Z,1002.89
2018-03-23T03:05:59.257Z,1002.87
2018-03-23T03:06:39.823Z,1002.89
2018-03-23T03:07:20.379Z,1002.86
2018-03-23T03:08:00.936Z,1002.81
2018-03-23T03:08:41.633Z,1002.85
2018-03-23T03:09:22.270Z,1002.87
2018-03-23T03:10:02.836Z,1002.85
2018-03-23T03:10:43.401Z,1002.84
2018-03-23T03:11:23.966Z,1002.8
2018-03-23T03:12:04.522Z,1002.84
2018-03-23T03:12:45.084Z,1002.85
2018-03-23T03:13:25.641Z,1002.83
2018-03-23T03:14:06.202Z,1002.85
2018-03-23T03:14:46.766Z,1002.82
2018-03-23T03:15:27.324Z,1002.85
2018-03-23T03:16:07.854Z,1002.87
2018-03-23T03:16:48.398Z,1002.88
2018-03-23T03:17:28.969Z,1002.91
2018-03-23T03:18:09.521Z,1002.84
2018-03-23T03:18:50.084Z,1002.88
2018-03-23T03:19:30.643Z,1002.87
2018-03-23T03:20:11.209Z,1002.92
2018-03-23T03:20:51.782Z,1002.93
2018-03-23T03:21:32.330Z,1002.99
2018-03-23T03:22:12.897Z,1002.95
2018-03-23T03:22:53.453Z,1002.95
2018-03-23T03:23:34.011Z,1002.9
2018-03-23T03:24:14.572Z,1002.9
2018-03-23T03:24:55.131Z,1002.92
2018-03-23T03:25:35.690Z,1002.92
2018-03-23T03:26:16.265Z,1002.92
2018-03-23T03:26:56.832Z,1002.94
2018-03-23T03:27:37.384Z,1002.92
2018-03-23T03:28:17.952Z,1002.98
2018-03-23T03:28:58.525Z,1003.03
2018-03-23T03:29:39.081Z,1003.05
2018-03-23T03:30:19.646Z,1003.07
2018-03-23T03:31:00.201Z,1003.1
2018-03-23T03:31:40.767Z,1003.11
2018-03-23T03:32:21.324Z,1003.08
2018-03-23T03:33:01.883Z,1003.07
2018-03-23T03:33:42.441Z,1003.04
2018-03-23T03:34:23.006Z,1003.07
2018-03-23T03:35:03.566Z,1003.09
2018-03-23T03:35:44.123Z,1003.1
2018-03-23T03:36:24.679Z,1003.13
2018-03-23T03:37:05.240Z,1003.09
2018-03-23T03:37:45.800Z,1003.09
2018-03-23T03:38:26.359Z,1003.07
2018-03-23T03:39:06.924Z,1003.09
2018-03-23T03:39:47.484Z,1003.07
2018-03-23T03:40:28.045Z,1003.07
2018-03-23T03:41:08.611Z,1003.06
2018-03-23T03:41:49.170Z,1003.06
2018-03-23T03:42:29.733Z,1003.06
2018-03-23T03:43:10.281Z,1003.06
2018-03-23T03:43:50.836Z,1003.07
2018-03-23T03:44:31.381Z,1003.04
2018-03-23T03:45:11.926Z,1003.02
2018-03-23T03:45:52.488Z,1003.03
2018-03-23T03:46:33.047Z,1003.04
2018-03-23T03:47:13.604Z,1003.09
2018-03-23T03:47:54.185Z,1003.06
2018-03-23T03:48:34.760Z,1003.05
2018-03-23T03:49:15.311Z,1003.08
2018-03-23T03:49:55.871Z,1003.06
2018-03-23T03:50:36.428Z,1003.04
2018-03-23T03:51:16.995Z,1003.03
2018-03-23T03:51:57.544Z,1003.07
2018-03-23T03:52:38.104Z,1003.01
2018-03-23T03:53:18.658Z,1003.05
2018-03-23T03:53:59.227Z,1003.08
2018-03-23T03:54:39.808Z,1003.09
2018-03-23T03:55:20.363Z,1003.08
2018-03-23T03:56:00.920Z,1003.03
2018-03-23T03:56:41.477Z,1002.99
2018-03-23T03:57:22.024Z,1003.02
2018-03-23T03:58:02.585Z,1003.07
2018-03-23T03:58:43.144Z,1003.02
2018-03-23T03:59:23.709Z,1003.07
2018-03-23T04:00:04.269Z,1003.04
2018-03-23T04:00:44.831Z,1003.08
2018-03-23T04:01:25.368Z,1003.04
2018-03-23T04:02:05.953Z,1003.11
2018-03-23T04:02:46.519Z,1003.06
2018-03-23T04:03:27.071Z,1003.07
2018-03-23T04:04:07.639Z,1003.08
2018-03-23T04:04:48.208Z,1003.07
2018-03-23T04:05:28.751Z,1003.1
2018-03-23T04:06:09.304Z,1003.06
2018-03-23T04:06:49.856Z,1003.05
2018-03-23T04:07:30.421Z,1003.09
2018-03-23T04:08:11.001Z,1003.09
2018-03-23T04:08:51.546Z,1003.1
2018-03-23T04:09:32.104Z,1003.08
2018-03-23T04:10:12.659Z,1003.04
2018-03-23T04:10:53.238Z,1003.07
2018-03-23T04:11:33.804Z,1003.06
2018-03-23T04:12:14.361Z,1003.1
2018-03-23T04:12:54.907Z,1003.11
2018-03-23T04:13:35.495Z,1003.09
2018-03-23T04:14:16.054Z,1003.07
2018-03-23T04:14:56.606Z,1003.04
2018-03-23T04:15:37.153Z,1003.02
2018-03-23T04:16:17.713Z,1003.03
2018-03-23T04:16:58.269Z,1003.01
2018-03-23T04:17:38.836Z,1003
2018-03-23T04:18:19.401Z,1002.99
2018-03-23T04:18:59.964Z,1002.93
2018-03-23T04:19:40.533Z,1002.95
2018-03-23T04:20:21.090Z,1002.93
2018-03-23T04:21:01.641Z,1002.98
2018-03-23T04:21:42.195Z,1002.97
2018-03-23T04:22:22.747Z,1002.99
2018-03-23T04:23:03.313Z,1003.01
2018-03-23T04:23:43.862Z,1003.03
2018-03-23T04:24:24.421Z,1003
2018-03-23T04:25:04.966Z,1002.96
2018-03-23T04:25:45.529Z,1002.95
2018-03-23T04:26:26.081Z,1002.91
2018-03-23T04:27:06.644Z,1002.93
2018-03-23T04:27:47.239Z,1002.89
2018-03-23T04:28:27.754Z,1002.89
2018-03-23T04:29:08.310Z,1002.87
2018-03-23T04:29:48.885Z,1002.88
2018-03-23T04:30:29.438Z,1002.89
2018-03-23T04:31:10.018Z,1002.93
2018-03-23T04:31:50.557Z,1002.89
2018-03-23T04:32:31.129Z,1002.87
2018-03-23T04:33:11.693Z,1002.86
2018-03-23T04:33:52.250Z,1002.84
2018-03-23T04:34:32.810Z,1002.83
2018-03-23T04:35:13.368Z,1002.87
2018-03-23T04:35:53.925Z,1002.88
2018-03-23T04:36:34.493Z,1002.89
2018-03-23T04:37:15.039Z,1002.89
2018-03-23T04:37:55.588Z,1002.88
2018-03-23T04:38:36.148Z,1002.82
2018-03-23T04:39:16.718Z,1002.82
2018-03-23T04:39:57.263Z,1002.84
2018-03-23T04:40:37.821Z,1002.83
2018-03-23T04:41:18.386Z,1002.8
2018-03-23T04:41:58.937Z,1002.85
2018-03-23T04:42:39.486Z,1002.86
2018-03-23T04:43:20.043Z,1002.86
2018-03-23T04:44:00.584Z,1002.89
2018-03-23T04:44:41.146Z,1002.84
2018-03-23T04:45:21.686Z,1002.82
2018-03-23T04:46:02.243Z,1002.86
2018-03-23T04:46:42.802Z,1002.85
2018-03-23T04:47:23.369Z,1002.87
2018-03-23T04:48:03.926Z,1002.89
2018-03-23T04:48:44.493Z,1002.89
2018-03-23T04:49:25.050Z,1002.84
2018-03-23T04:50:05.622Z,1002.86
2018-03-23T04:50:46.187Z,1002.86
2018-03-23T04:51:26.733Z,1002.9
2018-03-23T04:52:07.296Z,1002.85
2018-03-23T04:52:47.854Z,1002.86
2018-03-23T04:53:28.425Z,1002.83
2018-03-23T04:54:08.988Z,1002.77
2018-03-23T04:54:49.530Z,1002.78
2018-03-23T04:55:30.103Z,1002.78
2018-03-23T04:56:10.687Z,1002.8
2018-03-23T04:56:51.247Z,1002.83
2018-03-23T04:57:31.784Z,1002.81
2018-03-23T04:58:12.334Z,1002.8
2018-03-23T04:58:52.887Z,1002.75
2018-03-23T04:59:33.440Z,1002.77
2018-03-23T05:00:13.996Z,1002.75
2018-03-23T05:00:54.549Z,1002.76
2018-03-23T05:01:35.096Z,1002.7
2018-03-23T05:02:15.652Z,1002.73
2018-03-23T05:02:56.196Z,1002.69
2018-03-23T05:03:36.751Z,1002.73
2018-03-23T05:04:17.308Z,1002.75
2018-03-23T05:04:57.863Z,1002.69
2018-03-23T05:05:38.437Z,1002.7
2018-03-23T05:06:18.995Z,1002.68
2018-03-23T05:06:59.555Z,1002.68
2018-03-23T05:07:40.113Z,1002.63
2018-03-23T05:08:20.675Z,1002.66
2018-03-23T05:09:01.241Z,1002.7
2018-03-23T05:09:41.778Z,1002.69
2018-03-23T05:10:22.340Z,1002.7
2018-03-23T05:11:02.899Z,1002.68
2018-03-23T05:11:43.461Z,1002.64
2018-03-23T05:12:24.019Z,1002.71
2018-03-23T05:13:04.564Z,1002.65
2018-03-23T05:13:45.163Z,1002.71
2018-03-23T05:14:25.717Z,1002.66
2018-03-23T05:15:06.280Z,1002.65
2018-03-23T05:15:46.828Z,1002.69
2018-03-23T05:16:27.388Z,1002.66
2018-03-23T05:17:07.958Z,1002.67
2018-03-23T05:17:48.503Z,1002.7
2018-03-23T05:18:29.054Z,1002.72
2018-03-23T05:19:09.637Z,1002.77
2018-03-23T05:19:50.215Z,1002.71
2018-03-23T05:20:30.785Z,1002.73
2018-03-23T05:21:11.345Z,1002.73
2018-03-23T05:21:52.045Z,1002.73
2018-03-23T05:22:32.638Z,1002.74
2018-03-23T05:23:13.201Z,1002.77
2018-03-23T05:23:53.755Z,1002.75
2018-03-23T05:24:34.310Z,1002.75
2018-03-23T05:25:14.873Z,1002.75
2018-03-23T05:25:55.432Z,1002.74
2018-03-23T05:26:35.980Z,1002.76
2018-03-23T05:27:16.540Z,1002.68
2018-03-23T05:27:57.088Z,1002.71
2018-03-23T05:28:37.666Z,1002.66
2018-03-23T05:29:18.222Z,1002.7
2018-03-23T05:29:58.781Z,1002.7
2018-03-23T05:30:39.353Z,1002.72
2018-03-23T05:31:19.926Z,1002.7
2018-03-23T05:32:00.489Z,1002.71
2018-03-23T05:32:41.046Z,1002.73
2018-03-23T05:33:21.596Z,1002.72
2018-03-23T05:34:02.166Z,1002.71
2018-03-23T05:34:42.688Z,1002.68
2018-03-23T05:35:23.230Z,1002.73
2018-03-23T05:36:03.793Z,1002.72
2018-03-23T05:36:44.342Z,1002.7
2018-03-23T05:37:24.906Z,1002.73
2018-03-23T05:38:05.451Z,1002.7
2018-03-23T05:38:46.003Z,1002.76
2018-03-23T05:39:26.560Z,1002.71
2018-03-23T05:40:07.108Z,1002.76
2018-03-23T05:40:47.652Z,1002.76
2018-03-23T05:41:28.201Z,1002.72
2018-03-23T05:43:42.725Z,1002.74
2018-03-23T05:44:23.300Z,1002.75
2018-03-23T05:45:03.863Z,1002.7
2018-03-23T05:45:44.406Z,1002.75
2018-03-23T05:46:24.966Z,1002.74
2018-03-23T05:47:05.637Z,1002.71
2018-03-23T05:47:46.186Z,1002.76
2018-03-23T05:48:26.738Z,1002.72
2018-03-23T05:49:07.275Z,1002.72
2018-03-23T05:49:47.836Z,1002.7
2018-03-23T05:50:28.392Z,1002.7
2018-03-23T05:51:08.936Z,1002.72
2018-03-23T05:51:49.528Z,1002.72
2018-03-23T05:52:30.020Z,1002.68
2018-03-23T05:53:10.562Z,1002.72
2018-03-23T05:53:51.136Z,1002.7
2018-03-23T05:54:31.672Z,1002.69
2018-03-23T05:55:12.216Z,1002.68
2018-03-23T05:55:52.758Z,1002.7
2018-03-23T05:56:33.384Z,1002.68
2018-03-23T05:57:13.949Z,1002.7
2018-03-23T05:57:54.502Z,1002.71
2018-03-23T05:58:35.055Z,1002.68
2018-03-23T05:59:15.608Z,1002.69
2018-03-23T05:59:56.212Z,1002.69
2018-03-23T06:00:36.726Z,1002.7
2018-03-23T06:01:17.482Z,1002.7
2018-03-23T06:01:58.027Z,1002.72
2018-03-23T06:02:38.587Z,1002.67
2018-03-23T06:03:19.140Z,1002.71
2018-03-23T06:03:59.702Z,1002.72
2018-03-23T06:04:40.249Z,1002.72
2018-03-23T06:05:20.784Z,1002.72
2018-03-23T06:06:01.336Z,1002.72
2018-03-23T06:06:41.893Z,1002.73
2018-03-23T06:07:22.471Z,1002.7
2018-03-23T06:08:03.096Z,1002.68
2018-03-23T06:08:43.656Z,1002.7
2018-03-23T06:09:24.200Z,1002.68
2018-03-23T06:10:04.758Z,1002.69
2018-03-23T06:10:45.314Z,1002.7
2018-03-23T06:11:25.868Z,1002.69
2018-03-23T06:12:06.405Z,1002.71
2018-03-23T06:12:47.588Z,1002.71
2018-03-23T06:13:27.597Z,1002.72
2018-03-23T06:14:08.145Z,1002.72
2018-03-23T06:14:48.705Z,1002.75
2018-03-23T06:15:29.278Z,1002.73
2018-03-23T06:16:09.853Z,1002.73
2018-03-23T06:16:50.404Z,1002.75
2018-03-23T06:17:30.973Z,1002.77
2018-03-23T06:18:11.533Z,1002.75
2018-03-23T06:18:52.089Z,1002.76
2018-03-23T06:19:32.640Z,1002.75
2018-03-23T06:20:13.270Z,1002.81
2018-03-23T06:20:53.830Z,1002.73
2018-03-23T06:21:34.387Z,1002.73
2018-03-23T06:22:14.966Z,1002.73
2018-03-23T06:22:55.512Z,1002.73
2018-03-23T06:23:36.049Z,1002.74
2018-03-23T06:24:16.613Z,1002.79
2018-03-23T06:24:57.160Z,1002.77
2018-03-23T06:25:37.699Z,1002.76
2018-03-23T06:26:18.246Z,1002.82
2018-03-23T06:26:58.804Z,1002.79
2018-03-23T06:27:39.353Z,1002.82
2018-03-23T06:28:19.918Z,1002.82
2018-03-23T06:29:00.468Z,1002.78
2018-03-23T06:29:41.016Z,1002.79
2018-03-23T06:30:21.564Z,1002.82
2018-03-23T06:31:02.110Z,1002.75
2018-03-23T06:31:42.649Z,1002.75
2018-03-23T06:32:23.218Z,1002.78
2018-03-23T06:33:03.766Z,1002.77
2018-03-23T06:33:44.317Z,1002.77
2018-03-23T06:34:24.875Z,1002.8
2018-03-23T06:35:05.415Z,1002.79
2018-03-23T06:35:45.958Z,1002.82
2018-03-23T06:36:26.531Z,1002.81
2018-03-23T06:37:07.060Z,1002.79
2018-03-23T06:37:48.032Z,1002.8
2018-03-23T06:38:28.582Z,1002.81
2018-03-23T06:39:09.132Z,1002.8
2018-03-23T06:39:49.712Z,1002.82
2018-03-23T06:40:30.485Z,1002.82
2018-03-23T06:41:11.041Z,1002.81
2018-03-23T06:41:51.645Z,1002.8
2018-03-23T06:42:32.181Z,1002.78
2018-03-23T06:43:12.747Z,1002.85
2018-03-23T06:43:53.352Z,1002.86
2018-03-23T06:44:33.907Z,1002.88
2018-03-23T06:45:14.469Z,1002.89
2018-03-23T06:45:55.034Z,1002.84
2018-03-23T06:46:35.614Z,1002.85
2018-03-23T06:47:16.198Z,1002.85
2018-03-23T06:47:56.754Z,1002.85
2018-03-23T06:48:37.324Z,1002.89
2018-03-23T06:49:17.891Z,1002.86
2018-03-23T06:49:58.440Z,1002.85
2018-03-23T06:50:39.003Z,1002.86
2018-03-23T06:51:19.550Z,1002.85
2018-03-23T06:52:00.097Z,1002.84
2018-03-23T06:52:40.667Z,1002.84
2018-03-23T06:53:21.220Z,1002.85
2018-03-23T06:54:01.789Z,1002.88
2018-03-23T06:54:42.357Z,1002.88
2018-03-23T06:55:22.920Z,1002.85
2018-03-23T06:56:03.479Z,1002.89
2018-03-23T06:56:44.026Z,1002.85
2018-03-23T06:57:24.678Z,1002.86
2018-03-23T06:58:05.182Z,1002.89
2018-03-23T06:58:45.758Z,1002.94
2018-03-23T06:59:26.288Z,1002.88
2018-03-23T07:00:06.845Z,1002.87
2018-03-23T07:00:47.475Z,1002.89
2018-03-23T07:01:28.026Z,1002.9
2018-03-23T07:02:08.663Z,1002.9
2018-03-23T07:02:49.181Z,1002.9
2018-03-23T07:03:29.738Z,1002.87
2018-03-23T07:04:10.302Z,1002.88
2018-03-23T07:04:51.028Z,1002.85
2018-03-23T07:05:31.607Z,1002.88
2018-03-23T07:06:12.174Z,1002.88
2018-03-23T07:06:52.750Z,1002.9
2018-03-23T07:07:33.297Z,1002.96
2018-03-23T07:08:13.940Z,1002.96
2018-03-23T07:08:54.495Z,1003.01
2018-03-23T07:09:35.025Z,1002.98
2018-03-23T07:10:15.582Z,1002.97
2018-03-23T07:10:56.182Z,1002.98
2018-03-23T07:11:36.759Z,1002.98
2018-03-23T07:12:17.311Z,1003
2018-03-23T07:12:57.886Z,1002.96
2018-03-23T07:13:38.429Z,1002.97
2018-03-23T07:14:18.983Z,1002.97
2018-03-23T07:14:59.541Z,1002.94
2018-03-23T07:15:40.084Z,1002.96
2018-03-23T07:16:20.812Z,1002.94
2018-03-23T07:17:01.391Z,1002.94
2018-03-23T07:17:41.896Z,1002.96
2018-03-23T07:18:22.445Z,1003.01
2018-03-23T07:19:03.010Z,1002.97
2018-03-23T07:19:43.558Z,1002.97
2018-03-23T07:20:24.108Z,1002.97
2018-03-23T07:21:04.652Z,1002.99
2018-03-23T07:21:45.447Z,1002.99
2018-03-23T07:22:26.012Z,1003
2018-03-23T07:23:06.585Z,1003.02
2018-03-23T07:23:47.192Z,1003
2018-03-23T07:24:27.711Z,1003.02
2018-03-23T07:25:08.269Z,1003.02
2018-03-23T07:25:48.821Z,1003.02
2018-03-23T07:26:29.650Z,1002.99
2018-03-23T07:27:10.173Z,1003
2018-03-23T07:27:50.729Z,1003.06
2018-03-23T07:28:31.482Z,1003.02
2018-03-23T07:29:12.038Z,1003
2018-03-23T07:29:52.589Z,1003.04
2018-03-23T07:30:33.146Z,1003.03
2018-03-23T07:31:13.700Z,1003
2018-03-23T07:31:54.261Z,1003.01
2018-03-23T07:32:34.815Z,1003.01
2018-03-23T07:33:15.379Z,1003.04
2018-03-23T07:33:55.931Z,1003.02
2018-03-23T07:34:36.576Z,1003.03
2018-03-23T07:35:17.127Z,1003.04
2018-03-23T07:35:57.686Z,1003
2018-03-23T07:36:38.234Z,1003.02
2018-03-23T07:37:18.781Z,1003.02
2018-03-23T07:37:59.374Z,1003.05
2018-03-23T07:38:39.928Z,1003.07
2018-03-23T07:39:20.484Z,1003.06
2018-03-23T07:40:01.123Z,1003.02
2018-03-23T07:40:41.678Z,1003.08
2018-03-23T07:41:22.231Z,1003.08
2018-03-23T07:42:02.787Z,1003.07
2018-03-23T07:42:43.333Z,1003.07
2018-03-23T07:43:23.920Z,1003.06
2018-03-23T07:44:05.215Z,1003.1
2018-03-23T07:44:45.911Z,1003.03
2018-03-23T07:45:26.482Z,1003.03
2018-03-23T07:46:07.041Z,1003.05
2018-03-23T07:46:47.603Z,1003.07
2018-03-23T07:47:28.160Z,1003.07
2018-03-23T07:48:08.734Z,1003.05
2018-03-23T07:48:49.415Z,1003.04
2018-03-23T07:49:29.976Z,1003.05
2018-03-23T07:50:10.526Z,1003.05
2018-03-23T07:50:51.077Z,1003.04
2018-03-23T07:51:31.632Z,1003
2018-03-23T07:52:12.191Z,1003.03
2018-03-23T07:52:52.854Z,1003.04
2018-03-23T07:53:34.472Z,1003.04
2018-03-23T07:54:15.051Z,1003.02
2018-03-23T07:54:55.611Z,1003.02
2018-03-23T07:55:36.167Z,1003.06
2018-03-23T07:56:16.742Z,1003.01
2018-03-23T07:56:57.291Z,1003.04
2018-03-23T07:57:37.893Z,1003.08
2018-03-23T07:58:18.443Z,1003.08
2018-03-23T07:58:59.002Z,1003.09
2018-03-23T07:59:39.584Z,1003.02
2018-03-23T08:00:20.132Z,1003.08
2018-03-23T08:01:00.660Z,1003.06
2018-03-23T08:01:41.222Z,1003.08
2018-03-23T08:02:21.788Z,1003.01
2018-03-23T08:03:02.342Z,1003.05
2018-03-23T08:03:42.900Z,1003.05
2018-03-23T08:04:23.473Z,1003.07
2018-03-23T08:05:04.032Z,1003.06
2018-03-23T08:05:44.596Z,1003.05
2018-03-23T08:06:25.146Z,1003.05
2018-03-23T08:07:05.772Z,1003.05
2018-03-23T08:07:46.254Z,1003.01
2018-03-23T08:08:26.820Z,1003.03
2018-03-23T08:09:07.380Z,1003.02
2018-03-23T08:09:47.937Z,1003
2018-03-23T08:10:28.488Z,1002.99
2018-03-23T08:11:09.178Z,1003.03
2018-03-23T08:11:49.747Z,1003.04
2018-03-23T08:12:30.287Z,1003.01
2018-03-23T08:13:10.857Z,1003
2018-03-23T08:13:51.455Z,1003